GW3496 Weather Reports


time (UTC)temp
F
wind
direction
speed
knots
gust
knots
rain 1hr
in
rain 24hr
in
rain mn
in
humidity
%
barometer
mb
20240614133019 78 165 4.3 8.7 0.00 0.00 0.00 72 1011.6
20240614131525 77 225 3.5 7.8 0.00 0.00 0.00 73 1011.6
20240614130024 76 123 3.5 6.1 0.00 0.00 0.00 75 1011.5
20240614124527 75 248 4.3 9.6 0.00 0.00 0.00 76 1011.4
20240614123033 74 239 4.3 8.7 0.00 0.00 0.00 77 1011.4
20240614121523 74 191 5.2 10.4 0.00 0.00 0.00 77 1011.3
20240614120028 73 192 6.1 8.7 0.00 0.00 0.00 79 1011.5
20240614114546 72 211 7.8 13.9 0.00 0.00 0.00 80 1011.1
20240614113022 72 183 5.2 7.8 0.00 0.00 0.00 80 1011.0
20240614111550 71 206 2.6 7.0 0.00 0.00 0.00 81 1011.0
20240614110024 71 226 3.5 8.7 0.00 0.00 0.00 82 1010.8
20240614104528 70 215 3.5 8.7 0.00 0.00 0.00 82 1010.6
20240614103034 70 207 5.2 9.6 0.00 0.00 0.00 82 1010.9
20240614101534 70 192 5.2 8.7 0.00 0.00 0.00 82 1010.7
20240614100039 71 184 4.3 8.7 0.00 0.00 0.00 81 1010.6
20240614094537 71 188 3.5 7.0 0.00 0.00 0.00 81 1010.8
20240614093041 71 198 2.6 4.3 0.00 0.00 0.00 81 1010.8
20240614091528 71 126 0.9 3.5 0.00 0.00 0.00 80 1010.8
20240614090032 71 187 1.7 3.5 0.00 0.00 0.00 80 1010.8
20240614084530 71 149 1.7 5.2 0.00 0.00 0.00 80 1010.9
20240614083030 72 160 2.6 5.2 0.00 0.00 0.00 78 1010.7
20240614081528 73 221 3.5 7.0 0.00 0.00 0.00 77 1010.7
20240614080030 73 169 1.7 7.0 0.00 0.00 0.00 77 1011.0
20240614074526 73 192 3.5 5.2 0.00 0.00 0.00 76 1011.0
20240614073020 73 161 0.0 3.5 0.00 0.00 0.00 76 1011.2
20240614071530 74 169 1.7 3.5 0.00 0.00 0.00 75 1011.2
20240614070051 74 211 0.0 5.2 0.00 0.00 0.00 74 1011.2
20240614064538 74 208 3.5 6.1 0.00 0.00 0.00 75 1011.3
20240614063030 74 165 3.5 6.1 0.00 0.00 0.00 74 1011.3
20240614061526 75 217 3.5 8.7 0.00 0.00 0.00 73 1011.3
20240614060034 75 188 3.5 7.8 0.00 0.00 0.00 72 1011.3
20240614054529 76 204 2.6 7.8 0.00 0.00 0.00 71 1011.4
20240614053037 76 230 5.2 7.8 0.00 0.00 0.00 70 1011.6
20240614051535 76 195 3.5 8.7 0.00 0.00 0.00 69 1011.7
20240614050052 77 221 4.3 10.4 0.00 0.00 0.00 68 1011.8
20240614044550 78 218 4.3 9.6 0.00 0.00 0.00 67 1012.0
20240614043043 78 214 6.1 9.6 0.00 0.00 0.00 66 1011.9
20240614041546 78 167 7.0 11.3 0.00 0.00 0.00 66 1012.0
20240614040049 79 176 5.2 10.4 0.00 0.00 0.00 66 1012.0
20240614034542 79 152 3.5 9.6 0.00 0.00 0.00 65 1012.1
20240614033047 80 148 3.5 8.7 0.00 0.00 0.00 65 1012.2
20240614031545 80 139 4.3 11.3 0.00 0.00 0.00 65 1012.0
20240614030044 80 166 5.2 10.4 0.00 0.00 0.00 65 1012.2
20240614024548 81 197 3.5 10.4 0.00 0.00 0.00 65 1012.1
20240614023056 81 153 6.1 11.3 0.00 0.00 0.00 65 1012.0
20240614021543 81 130 5.2 8.7 0.00 0.00 0.00 65 1012.3
20240614020051 81 181 4.3 7.0 0.00 0.00 0.00 65 1012.1
20240614014546 82 172 4.3 7.8 0.00 0.00 0.00 65 1012.0
20240614013055 82 108 1.7 5.2 0.00 0.00 0.00 64 1011.8
20240614011600 83 185 4.3 7.0 0.00 0.00 0.00 64 1011.8
20240614010059 83 157 4.3 8.7 0.00 0.00 0.00 63 1011.8
20240614004553 84 164 5.2 7.8 0.00 0.00 0.00 61 1011.6
20240614003107 85 161 3.5 6.1 0.00 0.00 0.00 58 1011.8
20240614001547 86 200 6.1 10.4 0.00 0.00 0.00 54 1011.8
20240614000053 86 144 3.5 9.6 0.00 0.00 0.00 54 1011.8
20240613234558 87 171 6.1 12.2 0.00 0.00 0.00 52 1012.0
20240613233052 87 155 6.1 13.9 0.00 0.00 0.00 52 1012.1
20240613231556 88 198 5.2 12.2 0.00 0.00 0.00 52 1011.9
20240613230052 88 216 6.1 13.0 0.00 0.00 0.00 52 1011.8
20240613224601 88 163 3.5 11.3 0.00 0.00 0.00 52 1011.9
20240613223100 88 217 6.1 13.0 0.00 0.00 0.00 52 1011.8
20240613221557 88 239 7.8 16.5 0.00 0.00 0.00 51 1011.6
20240613220104 88 163 8.7 13.9 0.00 0.00 0.00 50 1011.6
20240613214553 89 188 6.1 13.0 0.00 0.00 0.00 51 1011.9
20240613213100 88 192 10.4 15.6 0.00 0.00 0.00 50 1011.7
20240613211603 89 195 10.4 15.6 0.00 0.00 0.00 49 1012.0
20240613210109 88 153 8.7 13.9 0.00 0.00 0.00 50 1011.8
20240613204553 89 192 8.7 15.6 0.00 0.00 0.00 49 1012.2
20240613203059 89 182 6.1 12.2 0.00 0.00 0.00 48 1012.2
20240613201557 90 96 8.7 15.6 0.00 0.00 0.00 48 1012.2
20240613200106 90 166 7.8 12.2 0.00 0.00 0.00 47 1012.5
20240613194558 89 163 5.2 15.6 0.00 0.00 0.00 49 1012.7
20240613193059 89 201 8.7 13.9 0.00 0.00 0.00 50 1012.5
20240613191601 90 160 4.3 14.8 0.00 0.00 0.00 49 1012.8
20240613190107 89 192 8.7 15.6 0.00 0.00 0.00 49 1012.8
20240613184611 88 131 5.2 13.0 0.00 0.00 0.00 51 1013.1
20240613183108 88 180 9.6 14.8 0.00 0.00 0.00 50 1013.2
20240613181609 87 232 6.1 11.3 0.00 0.00 0.00 52 1013.4
20240613180101 87 194 7.8 14.8 0.00 0.00 0.00 52 1013.5
20240613174641 87 171 4.3 12.2 0.00 0.00 0.00 54 1013.7
20240613173101 86 261 10.4 15.6 0.00 0.00 0.00 54 1013.8
20240613171601 85 202 7.8 15.6 0.00 0.00 0.00 55 1014.1
20240613170023 86 155 6.1 11.3 0.00 0.00 0.00 56 1014.1
20240613164518 84 54 4.3 14.8 0.00 0.00 0.00 59 1014.0
20240613163019 83 200 5.2 11.3 0.00 0.00 0.00 60 1014.4
20240613161515 83 173 5.2 9.6 0.00 0.00 0.00 60 1014.4
20240613160016 84 166 5.2 11.3 0.00 0.00 0.00 60 1014.5
20240613154520 83 206 3.5 12.2 0.00 0.00 0.00 61 1014.5
20240613153021 83 196 7.8 13.0 0.00 0.00 0.00 60 1014.6
20240613151514 83 216 6.1 13.9 0.00 0.00 0.00 62 1014.5
20240613150015 82 148 7.0 13.0 0.00 0.00 0.00 62 1014.5
20240613144527 81 161 5.2 10.4 0.00 0.00 0.00 65 1014.5
20240613143016 80 148 0.9 7.8 0.00 0.00 0.00 67 1014.9
20240613141519 79 184 5.2 7.8 0.00 0.00 0.00 70 1015.1
20240613140019 78 175 1.7 10.4 0.00 0.00 0.00 71 1014.8
20240613134520 77 153 4.3 7.8 0.00 0.00 0.00 73 1015.2